createdAt,value
2018-09-09T00:03:57.755Z,14.90
2018-09-09T00:10:02.594Z,14.90
2018-09-09T00:16:07.837Z,14.90
2018-09-09T00:22:13.987Z,14.80
2018-09-09T00:28:19.005Z,14.80
2018-09-09T00:34:24.444Z,14.70
2018-09-09T00:40:29.118Z,14.70
2018-09-09T00:46:34.013Z,14.70
2018-09-09T00:52:44.025Z,14.50
2018-09-09T00:58:48.802Z,14.60
2018-09-09T01:04:53.568Z,14.60
2018-09-09T01:10:58.246Z,14.50
2018-09-09T01:17:03.279Z,14.50
2018-09-09T01:23:08.249Z,14.60
2018-09-09T01:29:13.287Z,14.60
2018-09-09T01:35:18.071Z,14.60
2018-09-09T01:41:23.205Z,14.50
2018-09-09T01:47:27.922Z,14.50
2018-09-09T01:53:32.632Z,14.40
2018-09-09T01:59:37.505Z,14.40
2018-09-09T02:05:42.334Z,14.50
2018-09-09T02:11:47.104Z,14.30
2018-09-09T02:17:51.921Z,14.20
2018-09-09T02:23:56.834Z,14.20
2018-09-09T02:30:01.756Z,14.10
2018-09-09T02:36:06.574Z,14.10
2018-09-09T02:42:11.981Z,14.10
2018-09-09T02:48:16.955Z,14.10
2018-09-09T02:54:21.721Z,14.10
2018-09-09T03:00:26.490Z,14.10
2018-09-09T03:06:31.315Z,14.10
2018-09-09T03:12:36.027Z,14.20
2018-09-09T03:18:42.586Z,14.10
2018-09-09T03:24:47.277Z,14.10
2018-09-09T03:30:52.205Z,14.00
2018-09-09T03:36:56.947Z,14.00
2018-09-09T03:43:02.432Z,13.90
2018-09-09T03:49:07.344Z,13.90
2018-09-09T03:55:12.107Z,13.80
2018-09-09T04:01:17.127Z,13.90
2018-09-09T04:07:21.802Z,13.90
2018-09-09T04:13:26.513Z,13.90
2018-09-09T04:19:31.303Z,13.80
2018-09-09T04:25:36.124Z,13.80
2018-09-09T04:31:41.900Z,13.90
2018-09-09T04:37:46.615Z,13.80
2018-09-09T04:43:51.573Z,13.70
2018-09-09T04:49:56.394Z,13.70
2018-09-09T04:56:01.187Z,13.70
2018-09-09T05:02:06.076Z,13.80
2018-09-09T05:08:10.977Z,13.80
2018-09-09T05:14:16.169Z,13.80
2018-09-09T05:20:20.890Z,13.90
2018-09-09T05:26:25.639Z,13.90
2018-09-09T05:32:30.337Z,14.00
2018-09-09T05:38:35.058Z,14.00
2018-09-09T05:44:40.276Z,14.10
2018-09-09T05:50:45.924Z,14.20
2018-09-09T05:56:50.744Z,14.30
2018-09-09T06:02:55.481Z,14.40
2018-09-09T06:09:00.159Z,14.60
2018-09-09T06:15:05.128Z,14.70
2018-09-09T06:21:10.161Z,14.80
2018-09-09T06:27:15.078Z,15.00
2018-09-09T06:33:20.173Z,15.20
2018-09-09T06:39:25.213Z,15.20
2018-09-09T06:45:29.929Z,15.30
2018-09-09T06:51:34.903Z,15.50
2018-09-09T06:57:41.152Z,15.70
2018-09-09T07:03:46.271Z,15.70
2018-09-09T07:09:51.355Z,16.00
2018-09-09T07:15:56.178Z,18.10
2018-09-09T07:22:00.916Z,20.10
2018-09-09T07:28:05.650Z,20.30
2018-09-09T07:34:13.111Z,20.00
2018-09-09T07:40:17.954Z,19.80
2018-09-09T07:46:22.736Z,19.80
2018-09-09T07:52:27.784Z,19.70
2018-09-09T07:58:32.623Z,19.70
2018-09-09T08:04:37.425Z,20.10
2018-09-09T08:10:42.287Z,20.20
2018-09-09T08:16:47.187Z,20.80
2018-09-09T08:22:51.943Z,21.00
2018-09-09T08:28:56.774Z,20.90
2018-09-09T08:35:01.569Z,20.80
2018-09-09T08:41:07.552Z,20.80
2018-09-09T08:47:12.792Z,21.10
2018-09-09T08:53:17.579Z,21.10
2018-09-09T08:59:22.367Z,21.50
2018-09-09T09:05:27.198Z,21.60
2018-09-09T09:11:31.938Z,21.80
2018-09-09T09:17:36.700Z,21.80
2018-09-09T09:23:42.179Z,22.30
2018-09-09T09:29:52.369Z,23.80
2018-09-09T09:35:57.091Z,24.30
2018-09-09T09:42:01.837Z,24.40
2018-09-09T09:48:06.742Z,25.10
2018-09-09T09:54:12.885Z,25.30
2018-09-09T10:00:22.743Z,25.20
2018-09-09T10:06:27.459Z,24.80
2018-09-09T10:12:32.195Z,24.70
2018-09-09T10:18:36.930Z,24.70
2018-09-09T10:24:42.234Z,25.10
2018-09-09T10:30:47.065Z,25.30
2018-09-09T10:36:51.884Z,27.00
2018-09-09T10:42:56.696Z,28.90
2018-09-09T10:49:01.498Z,30.00
2018-09-09T10:55:06.371Z,29.40
2018-09-09T11:01:11.363Z,27.70
2018-09-09T11:07:16.664Z,27.30
2018-09-09T11:13:21.571Z,26.10
2018-09-09T11:19:26.541Z,25.40
2018-09-09T11:25:31.287Z,25.60
2018-09-09T11:31:36.487Z,26.50
2018-09-09T11:37:43.880Z,27.30
2018-09-09T11:43:49.116Z,28.50
2018-09-09T11:49:53.721Z,28.20
2018-09-09T11:55:58.768Z,27.30
2018-09-09T12:02:03.764Z,26.60
2018-09-09T12:08:09.114Z,26.70
2018-09-09T12:14:14.100Z,26.10
2018-09-09T12:20:19.038Z,26.00
2018-09-09T12:26:24.011Z,25.80
2018-09-09T12:32:29.075Z,26.40
2018-09-09T12:38:34.029Z,27.60
2018-09-09T12:44:44.023Z,28.50
2018-09-09T12:50:48.972Z,28.00
2018-09-09T12:56:53.784Z,27.20
2018-09-09T13:02:58.525Z,26.90
2018-09-09T13:09:03.583Z,25.80
2018-09-09T13:15:08.364Z,24.60
2018-09-09T13:21:13.481Z,24.10
2018-09-09T13:27:18.225Z,24.10
2018-09-09T13:33:22.988Z,24.00
2018-09-09T13:39:27.739Z,24.10
2018-09-09T13:45:32.471Z,24.60
2018-09-09T13:51:37.697Z,25.30
2018-09-09T13:57:42.717Z,25.40
2018-09-09T14:03:47.542Z,25.50
2018-09-09T14:09:52.381Z,25.60
2018-09-09T14:15:57.118Z,25.60
2018-09-09T14:22:01.947Z,26.50
2018-09-09T14:28:06.832Z,27.90
2018-09-09T14:34:12.084Z,28.70
2018-09-09T14:40:17.406Z,28.00
2018-09-09T14:46:22.322Z,27.30
2018-09-09T14:52:27.068Z,26.70
2018-09-09T14:58:31.960Z,26.00
2018-09-09T15:04:36.850Z,25.60
2018-09-09T15:10:42.769Z,26.10
2018-09-09T15:16:47.837Z,26.20
2018-09-09T15:22:52.660Z,28.50
2018-09-09T15:28:57.800Z,29.90
2018-09-09T15:35:02.703Z,32.00
2018-09-09T15:41:07.400Z,34.00
2018-09-09T15:47:12.343Z,35.60
2018-09-09T15:53:17.277Z,35.80
2018-09-09T15:59:22.138Z,36.70
2018-09-09T16:05:27.097Z,37.40
2018-09-09T16:11:32.286Z,36.70
2018-09-09T16:17:37.057Z,36.90
2018-09-09T16:23:43.345Z,37.10
2018-09-09T16:29:48.142Z,35.70
2018-09-09T16:35:53.041Z,32.60
2018-09-09T16:41:58.151Z,30.70
2018-09-09T16:48:03.070Z,29.70
2018-09-09T16:54:08.076Z,31.40
2018-09-09T17:00:13.286Z,32.80
2018-09-09T17:06:18.460Z,33.30
2018-09-09T17:12:23.359Z,32.80
2018-09-09T17:18:28.570Z,30.20
2018-09-09T17:24:33.595Z,28.40
2018-09-09T17:30:38.631Z,27.80
2018-09-09T17:36:43.911Z,26.50
2018-09-09T17:42:49.080Z,25.70
2018-09-09T17:48:53.873Z,24.50
2018-09-09T17:54:58.896Z,23.40
2018-09-09T18:01:03.794Z,22.60
2018-09-09T18:07:09.480Z,22.00
2018-09-09T18:13:15.103Z,21.50
2018-09-09T18:19:19.835Z,21.10
2018-09-09T18:25:24.652Z,20.90
2018-09-09T18:31:29.761Z,20.70
2018-09-09T18:37:34.491Z,20.40
2018-09-09T18:43:39.460Z,20.30
2018-09-09T18:49:44.296Z,20.10
2018-09-09T18:55:49.350Z,20.00
2018-09-09T19:01:55.025Z,19.80
2018-09-09T19:07:59.813Z,19.60
2018-09-09T19:14:05.108Z,19.40
2018-09-09T19:20:11.667Z,19.30
2018-09-09T19:26:16.529Z,19.00
2018-09-09T19:32:21.432Z,18.90
2018-09-09T19:38:26.465Z,18.80
2018-09-09T19:44:31.305Z,18.70
2018-09-09T19:50:36.186Z,18.50
2018-09-09T19:56:40.935Z,18.40
2018-09-09T20:02:46.136Z,18.40
2018-09-09T20:08:50.911Z,18.40
2018-09-09T20:14:55.965Z,18.30
2018-09-09T20:21:01.044Z,18.30
2018-09-09T20:27:05.902Z,18.20
2018-09-09T20:33:11.859Z,18.10
2018-09-09T20:39:16.820Z,18.00
2018-09-09T20:45:21.576Z,17.80
2018-09-09T20:51:26.305Z,17.60
2018-09-09T20:57:31.010Z,17.50
2018-09-09T21:03:35.860Z,17.20
2018-09-09T21:09:41.329Z,17.10
2018-09-09T21:15:46.132Z,16.90
2018-09-09T21:21:50.898Z,16.80
2018-09-09T21:27:55.632Z,16.70
2018-09-09T21:34:00.370Z,16.70
2018-09-09T21:40:05.254Z,16.50
2018-09-09T21:46:10.303Z,16.20
2018-09-09T21:52:14.989Z,16.20
2018-09-09T21:58:19.798Z,16.10
2018-09-09T22:04:24.667Z,16.00
2018-09-09T22:10:29.778Z,15.80
2018-09-09T22:16:34.885Z,15.60
2018-09-09T22:22:39.997Z,15.40
2018-09-09T22:28:45.379Z,15.20
2018-09-09T22:34:50.120Z,15.10
2018-09-09T22:40:54.788Z,15.00
2018-09-09T22:46:59.639Z,14.80
2018-09-09T22:53:04.622Z,14.70
2018-09-09T22:59:09.422Z,14.70
2018-09-09T23:05:14.413Z,14.70
2018-09-09T23:11:19.348Z,14.60
2018-09-09T23:17:24.164Z,14.50
2018-09-09T23:23:28.878Z,14.40
2018-09-09T23:29:33.719Z,14.40
2018-09-09T23:35:38.556Z,14.20
2018-09-09T23:41:43.722Z,14.10
2018-09-09T23:47:48.525Z,14.00
2018-09-09T23:53:53.359Z,13.80
2018-09-09T23:59:58.253Z,13.70
